Portada
METAR-TAF:

METAR-TAF

Aeroports :

Laoag, Filipines

latitud: 18-11N, longitud: 120-32E, altitud: 4 m

Observació

L'informe es va fer fa 1 hora i 22 minuts, a les 15:00 UTC
Vent 1 kt amb direcció variable
Temperatura 28°C
Humitat 84%
Pressió 1011 hPa
Visibilitat 10 km o més
Escasses núvols a una alçada de 1800 ft

METAR: RPLI 081500Z VRB01KT 9999 FEW018 28/25 Q1011 NOSIG RMK A2985

Hora: 00:22 (16:22 UTC)

Pronòstic

L'informe es va fer fa 5 hores i 22 minuts, a les 11:00 UTC
Pronòstic vàlid del 08 a les 12 UTC al 09 a les 12 UTC
Vent 10 kt del Nord
Visibilitat 10 km o més
Escasses núvols a una alçada de 1800 ft
Núvols disperses a una alçada de 29000 ft
Temporalment
l' 08 a les 12 UTC al 08 a les 18 UTC
Escasses núvols a una alçada de 1700 ft, Cumulonimbus.
Escasses núvols a una alçada de 1800 ft
Cel ennuvolat a una alçada de 9000 ft

TAF: RPLI 081100Z 0812/0912 35010KT 9999 FEW018 SCT290 TEMPO 0812/0818 FEW017CB FEW018 BKN090

Observacions i pronòstics meteorològics de més de 4000 aeroports (METAR i TAF).

Les estacions disponibles són els punts grocs i vermells al mapa.

Posi el ratolí al punt desitjat per veure el nom de l'estació.

Feu clic per veure les observacions i els pronòstics meteorològics.

Per canviar el mapa: feu clic els botons verds amb una creu de color negre per apropar; al botó verd amb un guió per allunyar la imatge; o en les fletxes verdes per a mapes adjacents.


METAR-TAF: